Condor Express — WDG7544 — position and weather

sailwx.info

Track history (hours):
 
Tides and Currents Weather Stations Pressure Air Temp Water Temp Dewpoint Dewpoint Depression Visibility Wind Speed Wind Dir Waves Ship Positions

Condor Express

Owner: H & M Landing Inc, Santa Barbara, CA. More information available from US FCC via Universal Licensing System and Coast Guard Vessel Documentation Center.

Last reported at 2017-Dec-04 09:25 UTC. Time now 2017-Dec-13 16:54 UTC.
Position N 34°24' W 119°42'.
Warning: this ship's position is 9 days out of date.

Type: Ship. MMSI: 367568350.

Date/timePositionNaut miles runAvg speedWind from/ knotsBaromVisibWave heightAir tempDewpointWater temp
2017-Dec-04 09:25N 34°24' W 119°42'0 0.1
2017-Dec-04 01:47N 34°24' W 119°41'2 2.5
2017-Dec-04 01:10N 34°23' W 119°42'0 1.1
2017-Dec-04 00:48N 34°23' W 119°42'1 4.4
2017-Dec-04 00:28N 34°23' W 119°40'2 0.7
2017-Dec-03 22:09N 34°24' W 119°42'0 0.0
2017-Dec-03 21:51N 34°24' W 119°42'0 0.0
2017-Dec-03 20:39N 34°24' W 119°42'0 0.0
2017-Dec-03 20:12N 34°24' W 119°42'0 0.0
2017-Dec-03 19:51N 34°24' W 119°42'0 0.0
2017-Dec-03 14:30N 34°24' W 119°42'0 0.0
2017-Dec-03 14:00N 34°24' W 119°42'0 0.0
2017-Dec-03 12:33N 34°24' W 119°42'0 0.0
2017-Dec-03 11:27N 34°24' W 119°42'0 0.0
2017-Dec-03 10:57N 34°24' W 119°42'0 0.0
2017-Dec-03 09:36N 34°24' W 119°42'0 0.0
2017-Dec-03 09:18N 34°24' W 119°42'0 0.0
2017-Dec-03 08:51N 34°24' W 119°42'0 0.0
2017-Dec-03 08:21N 34°24' W 119°42'0 0.0
2017-Dec-03 07:48N 34°24' W 119°42'0 0.0
2017-Dec-03 07:27N 34°24' W 119°42'0 0.0
2017-Dec-03 07:00N 34°24' W 119°42'0 0.0
2017-Dec-03 06:24N 34°24' W 119°42'0 0.0
2017-Dec-03 06:00N 34°24' W 119°42'0 0.0
2017-Dec-03 01:54N 34°24' W 119°42'0 0.0
2017-Dec-03 01:18N 34°24' W 119°42'1 2.3
2017-Dec-03 00:59N 34°24' W 119°41'1 1.7
2017-Dec-03 00:24N 34°24' W 119°39'2 4.7
2017-Dec-02 23:58N 34°24' W 119°42'1 0.7
2017-Dec-02 22:18N 34°25' W 119°41'617.4
2017-Dec-02 21:59N 34°21' W 119°46'919.6
2017-Dec-02 21:30N 34°22' W 119°58'1118.4
2017-Dec-02 20:53N 34°11' W 119°55'614.1
2017-Dec-02 20:29N 34°06' W 119°53'612.4
2017-Dec-02 19:57N 34°05' W 119°46'1 3.0
2017-Dec-02 19:30N 34°05' W 119°44'712.4
2017-Dec-02 18:54N 34°12' W 119°45'1018.9
2017-Dec-02 18:21N 34°22' W 119°42'2 0.7
2017-Dec-02 15:21N 34°24' W 119°42'0 0.0
2017-Dec-02 15:00N 34°24' W 119°42'0 0.0
2017-Dec-02 13:45N 34°24' W 119°42'0 0.0
2017-Dec-02 13:03N 34°24' W 119°42'0 0.0
2017-Dec-02 12:57N 34°24' W 119°42'0 0.0
2017-Dec-02 12:12N 34°24' W 119°42'0 0.0
2017-Dec-02 11:54N 34°24' W 119°42'0 0.0
2017-Dec-02 11:30N 34°24' W 119°42'0 0.0
2017-Dec-02 10:51N 34°24' W 119°42'0 0.0
2017-Dec-02 10:24N 34°24' W 119°42'0 0.0
2017-Dec-02 09:48N 34°24' W 119°42'0 0.0
2017-Dec-02 09:27N 34°24' W 119°42'0 0.0
2017-Dec-02 07:06N 34°24' W 119°42'0 0.0
2017-Dec-02 06:39N 34°24' W 119°42'0 0.0
2017-Dec-02 06:18N 34°24' W 119°42'0 0.0
2017-Dec-02 05:51N 34°24' W 119°42'0 0.0
2017-Dec-02 05:15N 34°24' W 119°42'0 0.0
2017-Dec-02 01:54N 34°24' W 119°42'0 0.0
2017-Dec-02 01:27N 34°24' W 119°42'1 0.2
2017-Dec-01 22:19N 34°24' W 119°41'819.8
2017-Dec-01 21:56N 34°17' W 119°43'919.5
2017-Dec-01 21:29N 34°08' W 119°46'4 7.2
2017-Dec-01 20:58N 34°04' W 119°47'1 1.6
2017-Dec-01 20:28N 34°05' W 119°46'3 6.3
2017-Dec-01 19:59N 34°08' W 119°48'1 1.6
2017-Dec-01 19:27N 34°07' W 119°47'4 9.2
2017-Dec-01 19:00N 34°11' W 119°47'1019.0
2017-Dec-01 18:27N 34°21' W 119°43'3 2.0
2017-Dec-01 16:44N 34°24' W 119°42'0 0.0
2017-Dec-01 13:17N 34°24' W 119°42'0 0.0
2017-Dec-01 11:50N 34°24' W 119°42'0 0.0
2017-Dec-01 10:23N 34°24' W 119°42'0 0.0
2017-Dec-01 09:59N 34°24' W 119°42'0 0.0
2017-Dec-01 09:26N 34°24' W 119°42'0 0.0
2017-Dec-01 07:59N 34°24' W 119°42'0 0.0
2017-Dec-01 07:26N 34°24' W 119°42'0 0.0
2017-Dec-01 06:59N 34°24' W 119°42'0 0.0
2017-Dec-01 05:35N 34°24' W 119°42'0 0.0
2017-Dec-01 05:29N 34°24' W 119°42'0 0.0
2017-Dec-01 04:59N 34°24' W 119°42'0 0.0
2017-Dec-01 04:20N 34°24' W 119°42'0 0.0
2017-Dec-01 03:59N 34°24' W 119°42'0 0.0
2017-Dec-01 01:08N 34°24' W 119°42'0 0.0
2017-Dec-01 00:44N 34°24' W 119°42'0 0.0
2017-Dec-01 00:23N 34°24' W 119°42'0 0.0
2017-Nov-30 22:32N 34°24' W 119°42'0 0.0
2017-Nov-30 22:14N 34°24' W 119°42'0 0.0
2017-Nov-30 21:56N 34°24' W 119°42'0 0.0
2017-Nov-30 21:28N 34°24' W 119°42'0 0.2
2017-Nov-30 19:57N 34°24' W 119°42'0 0.1
2017-Nov-30 19:02N 34°24' W 119°42'0 0.1
2017-Nov-30 18:36N 34°24' W 119°42'0 0.1
2017-Nov-30 17:06N 34°24' W 119°42'0 0.0
2017-Nov-30 16:44N 34°24' W 119°42'0 0.0
2017-Nov-30 15:35N 34°24' W 119°42'0 0.0
2017-Nov-30 15:26N 34°24' W 119°42'0 0.0
2017-Nov-30 12:50N 34°24' W 119°42'0 0.0
2017-Nov-30 11:45N 34°24' W 119°42'0 0.0
2017-Nov-30 11:09N 34°24' W 119°42'0 0.0
2017-Nov-30 08:48N 34°24' W 119°42'0 0.0
2017-Nov-30 08:30N 34°24' W 119°42'0 0.0
2017-Nov-30 07:57N 34°24' W 119°42'0 0.0
2017-Nov-30 07:27N 34°24' W 119°42'0 0.0
2017-Nov-30 05:33N 34°24' W 119°42'0 0.0
2017-Nov-30 05:30N 34°24' W 119°42'0 0.0
2017-Nov-30 03:48N 34°24' W 119°42'0 0.0
2017-Nov-30 01:54N 34°24' W 119°42'0 0.0
2017-Nov-29 21:51N 34°24' W 119°42'0 0.0
2017-Nov-29 19:51N 34°24' W 119°42'0 0.0
2017-Nov-29 19:30N 34°24' W 119°42'0 0.0
2017-Nov-29 19:00N 34°24' W 119°42'0 0.0
2017-Nov-29 18:09N 34°24' W 119°42'0 0.0
2017-Nov-29 17:39N 34°24' W 119°42'0 0.0
2017-Nov-29 17:18N 34°24' W 119°42'0 0.0
2017-Nov-29 14:39N 34°24' W 119°42'0 0.0
2017-Nov-29 14:18N 34°24' W 119°42'0 0.0
2017-Nov-29 13:45N 34°24' W 119°42'0 0.0
2017-Nov-29 10:51N 34°24' W 119°42'0 0.0
2017-Nov-29 09:27N 34°24' W 119°42'0 0.0
2017-Nov-29 07:06N 34°24' W 119°42'0 0.0
2017-Nov-29 06:45N 34°24' W 119°42'0 0.0
2017-Nov-29 06:30N 34°24' W 119°42'0 0.0
2017-Nov-29 04:57N 34°24' W 119°42'0 0.0
2017-Nov-29 01:51N 34°24' W 119°42'0 0.0
2017-Nov-28 21:33N 34°24' W 119°42'0 0.0
2017-Nov-28 21:12N 34°24' W 119°42'0 0.0
2017-Nov-28 21:00N 34°24' W 119°42'0 0.0
2017-Nov-28 19:18N 34°24' W 119°42'0 0.0
2017-Nov-28 18:51N 34°24' W 119°42'0 0.0
2017-Nov-28 17:39N 34°24' W 119°42'0 0.0
2017-Nov-28 17:18N 34°24' W 119°42'0 0.0
2017-Nov-28 13:42N 34°24' W 119°42'0 0.0
2017-Nov-28 13:27N 34°24' W 119°42'0 0.0
2017-Nov-28 06:30N 34°24' W 119°42'0 0.0
2017-Nov-28 03:30N 34°24' W 119°42'0 0.0
2017-Nov-28 01:42N 34°24' W 119°42'0 0.0
2017-Nov-28 01:27N 34°24' W 119°42'0 0.0
2017-Nov-28 00:21N 34°24' W 119°42'0 0.0
2017-Nov-27 23:54N 34°24' W 119°42'0 0.0
2017-Nov-27 22:06N 34°24' W 119°42'0 0.0
2017-Nov-27 21:06N 34°24' W 119°42'0 0.0
2017-Nov-27 20:12N 34°24' W 119°42'0 0.0
2017-Nov-27 19:21N 34°24' W 119°42'0 0.0
2017-Nov-27 18:15N 34°24' W 119°42'0 0.0
2017-Nov-27 17:51N 34°24' W 119°42'0 0.0
2017-Nov-27 17:15N 34°24' W 119°42'0 0.0
2017-Nov-27 17:00N 34°24' W 119°42'0 0.0
2017-Nov-27 16:21N 34°24' W 119°42'0 0.0
2017-Nov-27 14:15N 34°24' W 119°42'0 0.0
2017-Nov-27 12:45N 34°24' W 119°42'0 0.0
2017-Nov-27 11:21N 34°24' W 119°42'0 0.0
2017-Nov-27 08:48N 34°24' W 119°42'0 0.0
2017-Nov-27 07:12N 34°24' W 119°42'0 0.0
2017-Nov-27 06:57N 34°24' W 119°42'0 0.0
2017-Nov-27 06:21N 34°24' W 119°42'0 0.0
2017-Nov-27 05:51N 34°24' W 119°42'0 0.0
2017-Nov-27 05:30N 34°24' W 119°42'0 0.0
2017-Nov-27 04:33N 34°24' W 119°42'0 0.0
2017-Nov-27 04:15N 34°24' W 119°42'0 0.0
2017-Nov-27 03:51N 34°24' W 119°42'0 0.0
2017-Nov-27 03:30N 34°24' W 119°42'0 0.0
2017-Nov-27 02:54N 34°24' W 119°42'0 0.0
2017-Nov-27 02:00N 34°24' W 119°42'0 0.0
2017-Nov-27 01:15N 34°24' W 119°42'0 0.0
2017-Nov-27 00:48N 34°24' W 119°42'0 0.0
2017-Nov-27 00:27N 34°24' W 119°42'0 0.0
2017-Nov-26 23:45N 34°24' W 119°42'0 0.0
2017-Nov-26 23:27N 34°24' W 119°42'0 0.1
2017-Nov-26 22:26N 34°24' W 119°41'2 5.3
2017-Nov-26 21:58N 34°22' W 119°42'1020.9
2017-Nov-26 21:30N 34°12' W 119°45'510.7
2017-Nov-26 21:00N 34°07' W 119°46'0 0.7
2017-Nov-26 20:28N 34°07' W 119°46'1 1.5
2017-Nov-26 20:00N 34°07' W 119°46'4 7.2
2017-Nov-26 19:30N 34°11' W 119°45'1018.4
2017-Nov-26 18:58N 34°20' W 119°41'1 1.8
2017-Nov-26 18:30N 34°20' W 119°42'4 1.0
2017-Nov-26 13:59N 34°24' W 119°42'0 0.0
2017-Nov-26 12:59N 34°24' W 119°42'0 0.0
2017-Nov-26 11:44N 34°24' W 119°42'0 0.0
2017-Nov-26 11:29N 34°24' W 119°42'0 0.0
2017-Nov-26 10:50N 34°24' W 119°42'0 0.0
2017-Nov-26 09:59N 34°24' W 119°42'0 0.0
2017-Nov-26 09:20N 34°24' W 119°42'0 0.0
2017-Nov-26 08:47N 34°24' W 119°42'0 0.0
2017-Nov-26 08:26N 34°24' W 119°42'0 0.0
2017-Nov-25 22:37N 34°24' W 119°42'0 2.4
2017-Nov-25 22:30N 34°25' W 119°41'713.1
2017-Nov-25 21:59N 34°18' W 119°45'918.0
2017-Nov-25 21:30N 34°10' W 119°47'4 7.8
2017-Nov-25 20:57N 34°06' W 119°48'1 1.6
2017-Nov-25 20:28N 34°06' W 119°48'2 3.2
2017-Nov-25 20:00N 34°08' W 119°48'0 0.7
2017-Nov-25 19:30N 34°08' W 119°49'3 6.7
2017-Nov-25 19:00N 34°11' W 119°48'1118.2
2017-Nov-25 18:25N 34°21' W 119°43'4 5.9
2017-Nov-25 17:47N 34°24' W 119°42'0 0.0
2017-Nov-25 17:23N 34°24' W 119°42'0 0.0
2017-Nov-25 16:23N 34°24' W 119°42'0 0.0
2017-Nov-25 15:59N 34°24' W 119°42'0 0.0
2017-Nov-25 15:26N 34°24' W 119°42'0 0.0
2017-Nov-25 14:44N 34°24' W 119°42'0 0.0
2017-Nov-25 14:26N 34°24' W 119°42'0 0.0
2017-Nov-25 13:41N 34°24' W 119°42'0 0.0
2017-Nov-25 13:23N 34°24' W 119°42'0 0.0
2017-Nov-25 12:53N 34°24' W 119°42'0 0.0
2017-Nov-25 11:53N 34°24' W 119°42'0 0.0
2017-Nov-25 11:02N 34°24' W 119°42'0 0.0
2017-Nov-25 10:59N 34°24' W 119°42'0 0.0
2017-Nov-25 09:50N 34°24' W 119°42'0 0.0
2017-Nov-25 09:14N 34°24' W 119°42'0 0.0
2017-Nov-25 08:59N 34°24' W 119°42'0 0.0
2017-Nov-25 08:11N 34°24' W 119°42'0 0.0
2017-Nov-25 07:47N 34°24' W 119°42'0 0.0
2017-Nov-25 07:23N 34°24' W 119°42'0 0.0
2017-Nov-25 06:05N 34°24' W 119°42'0 0.0
2017-Nov-25 05:35N 34°24' W 119°42'0 0.0
2017-Nov-25 05:17N 34°24' W 119°42'0 0.0
2017-Nov-25 04:29N 34°24' W 119°42'0 0.0
2017-Nov-25 03:50N 34°24' W 119°42'0 0.0
2017-Nov-25 03:14N 34°24' W 119°42'0 0.0
2017-Nov-25 02:50N 34°24' W 119°42'0 0.0
2017-Nov-25 02:14N 34°24' W 119°42'0 0.0
2017-Nov-25 01:41N 34°24' W 119°42'0 0.0
2017-Nov-25 00:38N 34°24' W 119°42'0 0.0
2017-Nov-25 00:20N 34°24' W 119°42'0 0.0
2017-Nov-24 23:59N 34°24' W 119°42'0 0.0
2017-Nov-24 23:26N 34°24' W 119°42'0 0.0
2017-Nov-24 22:47N 34°24' W 119°42'3 7.2
2017-Nov-24 22:25N 34°22' W 119°42'717.3
2017-Nov-24 22:00N 34°15' W 119°44'816.4
2017-Nov-24 21:30N 34°07' W 119°46'1 1.4
2017-Nov-24 20:59N 34°06' W 119°46'0 0.8
2017-Nov-24 20:26N 34°06' W 119°47'1 2.5
2017-Nov-24 19:59N 34°07' W 119°48'1 2.8
2017-Nov-24 19:30N 34°08' W 119°49'611.8
2017-Nov-24 18:59N 34°14' W 119°48'1016.7
2017-Nov-24 18:24N 34°22' W 119°42'3 4.6
2017-Nov-24 17:49N 34°24' W 119°42'0 0.0
2017-Nov-24 17:19N 34°24' W 119°42'0 0.0
2017-Nov-24 12:28N 34°24' W 119°42'0 0.0
2017-Nov-24 11:34N 34°24' W 119°42'0 0.0
2017-Nov-24 10:58N 34°24' W 119°42'0 0.0
2017-Nov-24 10:28N 34°24' W 119°42'  
Track history (hours):
 
Tides and Currents Weather Stations Pressure Air Temp Water Temp Dewpoint Dewpoint Depression Visibility Wind Speed Wind Dir Waves Ship Positions

Condor Express

Owner: H & M Landing Inc, Santa Barbara, CA. More information available from US FCC via Universal Licensing System and Coast Guard Vessel Documentation Center.

Last reported at 2017-Dec-04 09:25 UTC. Time now 2017-Dec-13 16:54 UTC.
Position N 34°24' W 119°42'.
Warning: this ship's position is 9 days out of date.

Type: Ship. MMSI: 367568350.

Date/timePositionNaut miles runAvg speedWind from/ knotsBaromVisibWave heightAir tempDewpointWater temp
2017-Dec-04 09:25N 34°24' W 119°42'0 0.1
2017-Dec-04 01:47N 34°24' W 119°41'2 2.5
2017-Dec-04 01:10N 34°23' W 119°42'0 1.1
2017-Dec-04 00:48N 34°23' W 119°42'1 4.4
2017-Dec-04 00:28N 34°23' W 119°40'2 0.7
2017-Dec-03 22:09N 34°24' W 119°42'0 0.0
2017-Dec-03 21:51N 34°24' W 119°42'0 0.0
2017-Dec-03 20:39N 34°24' W 119°42'0 0.0
2017-Dec-03 20:12N 34°24' W 119°42'0 0.0
2017-Dec-03 19:51N 34°24' W 119°42'0 0.0
2017-Dec-03 14:30N 34°24' W 119°42'0 0.0
2017-Dec-03 14:00N 34°24' W 119°42'0 0.0
2017-Dec-03 12:33N 34°24' W 119°42'0 0.0
2017-Dec-03 11:27N 34°24' W 119°42'0 0.0
2017-Dec-03 10:57N 34°24' W 119°42'0 0.0
2017-Dec-03 09:36N 34°24' W 119°42'0 0.0
2017-Dec-03 09:18N 34°24' W 119°42'0 0.0
2017-Dec-03 08:51N 34°24' W 119°42'0 0.0
2017-Dec-03 08:21N 34°24' W 119°42'0 0.0
2017-Dec-03 07:48N 34°24' W 119°42'0 0.0
2017-Dec-03 07:27N 34°24' W 119°42'0 0.0
2017-Dec-03 07:00N 34°24' W 119°42'0 0.0
2017-Dec-03 06:24N 34°24' W 119°42'0 0.0
2017-Dec-03 06:00N 34°24' W 119°42'0 0.0
2017-Dec-03 01:54N 34°24' W 119°42'0 0.0
2017-Dec-03 01:18N 34°24' W 119°42'1 2.3
2017-Dec-03 00:59N 34°24' W 119°41'1 1.7
2017-Dec-03 00:24N 34°24' W 119°39'2 4.7
2017-Dec-02 23:58N 34°24' W 119°42'1 0.7
2017-Dec-02 22:18N 34°25' W 119°41'617.4
2017-Dec-02 21:59N 34°21' W 119°46'919.6
2017-Dec-02 21:30N 34°22' W 119°58'1118.4
2017-Dec-02 20:53N 34°11' W 119°55'614.1
2017-Dec-02 20:29N 34°06' W 119°53'612.4
2017-Dec-02 19:57N 34°05' W 119°46'1 3.0
2017-Dec-02 19:30N 34°05' W 119°44'712.4
2017-Dec-02 18:54N 34°12' W 119°45'1018.9
2017-Dec-02 18:21N 34°22' W 119°42'2 0.7
2017-Dec-02 15:21N 34°24' W 119°42'0 0.0
2017-Dec-02 15:00N 34°24' W 119°42'0 0.0
2017-Dec-02 13:45N 34°24' W 119°42'0 0.0
2017-Dec-02 13:03N 34°24' W 119°42'0 0.0
2017-Dec-02 12:57N 34°24' W 119°42'0 0.0
2017-Dec-02 12:12N 34°24' W 119°42'0 0.0
2017-Dec-02 11:54N 34°24' W 119°42'0 0.0
2017-Dec-02 11:30N 34°24' W 119°42'0 0.0
2017-Dec-02 10:51N 34°24' W 119°42'0 0.0
2017-Dec-02 10:24N 34°24' W 119°42'0 0.0
2017-Dec-02 09:48N 34°24' W 119°42'0 0.0
2017-Dec-02 09:27N 34°24' W 119°42'0 0.0
2017-Dec-02 07:06N 34°24' W 119°42'0 0.0
2017-Dec-02 06:39N 34°24' W 119°42'0 0.0
2017-Dec-02 06:18N 34°24' W 119°42'0 0.0
2017-Dec-02 05:51N 34°24' W 119°42'0 0.0
2017-Dec-02 05:15N 34°24' W 119°42'0 0.0
2017-Dec-02 01:54N 34°24' W 119°42'0 0.0
2017-Dec-02 01:27N 34°24' W 119°42'1 0.2
2017-Dec-01 22:19N 34°24' W 119°41'819.8
2017-Dec-01 21:56N 34°17' W 119°43'919.5
2017-Dec-01 21:29N 34°08' W 119°46'4 7.2
2017-Dec-01 20:58N 34°04' W 119°47'1 1.6
2017-Dec-01 20:28N 34°05' W 119°46'3 6.3
2017-Dec-01 19:59N 34°08' W 119°48'1 1.6
2017-Dec-01 19:27N 34°07' W 119°47'4 9.2
2017-Dec-01 19:00N 34°11' W 119°47'1019.0
2017-Dec-01 18:27N 34°21' W 119°43'3 2.0
2017-Dec-01 16:44N 34°24' W 119°42'0 0.0
2017-Dec-01 13:17N 34°24' W 119°42'0 0.0
2017-Dec-01 11:50N 34°24' W 119°42'0 0.0
2017-Dec-01 10:23N 34°24' W 119°42'0 0.0
2017-Dec-01 09:59N 34°24' W 119°42'0 0.0
2017-Dec-01 09:26N 34°24' W 119°42'0 0.0
2017-Dec-01 07:59N 34°24' W 119°42'0 0.0
2017-Dec-01 07:26N 34°24' W 119°42'0 0.0
2017-Dec-01 06:59N 34°24' W 119°42'0 0.0
2017-Dec-01 05:35N 34°24' W 119°42'0 0.0
2017-Dec-01 05:29N 34°24' W 119°42'0 0.0
2017-Dec-01 04:59N 34°24' W 119°42'0 0.0
2017-Dec-01 04:20N 34°24' W 119°42'0 0.0
2017-Dec-01 03:59N 34°24' W 119°42'0 0.0
2017-Dec-01 01:08N 34°24' W 119°42'0 0.0
2017-Dec-01 00:44N 34°24' W 119°42'0 0.0
2017-Dec-01 00:23N 34°24' W 119°42'0 0.0
2017-Nov-30 22:32N 34°24' W 119°42'0 0.0
2017-Nov-30 22:14N 34°24' W 119°42'0 0.0
2017-Nov-30 21:56N 34°24' W 119°42'0 0.0
2017-Nov-30 21:28N 34°24' W 119°42'0 0.2
2017-Nov-30 19:57N 34°24' W 119°42'0 0.1
2017-Nov-30 19:02N 34°24' W 119°42'0 0.1
2017-Nov-30 18:36N 34°24' W 119°42'0 0.1
2017-Nov-30 17:06N 34°24' W 119°42'0 0.0
2017-Nov-30 16:44N 34°24' W 119°42'0 0.0
2017-Nov-30 15:35N 34°24' W 119°42'0 0.0
2017-Nov-30 15:26N 34°24' W 119°42'0 0.0
2017-Nov-30 12:50N 34°24' W 119°42'0 0.0
2017-Nov-30 11:45N 34°24' W 119°42'0 0.0
2017-Nov-30 11:09N 34°24' W 119°42'0 0.0
2017-Nov-30 08:48N 34°24' W 119°42'0 0.0
2017-Nov-30 08:30N 34°24' W 119°42'0 0.0
2017-Nov-30 07:57N 34°24' W 119°42'0 0.0
2017-Nov-30 07:27N 34°24' W 119°42'0 0.0
2017-Nov-30 05:33N 34°24' W 119°42'0 0.0
2017-Nov-30 05:30N 34°24' W 119°42'0 0.0
2017-Nov-30 03:48N 34°24' W 119°42'0 0.0
2017-Nov-30 01:54N 34°24' W 119°42'0 0.0
2017-Nov-29 21:51N 34°24' W 119°42'0 0.0
2017-Nov-29 19:51N 34°24' W 119°42'0 0.0
2017-Nov-29 19:30N 34°24' W 119°42'0 0.0
2017-Nov-29 19:00N 34°24' W 119°42'0 0.0
2017-Nov-29 18:09N 34°24' W 119°42'0 0.0
2017-Nov-29 17:39N 34°24' W 119°42'0 0.0
2017-Nov-29 17:18N 34°24' W 119°42'0 0.0
2017-Nov-29 14:39N 34°24' W 119°42'0 0.0
2017-Nov-29 14:18N 34°24' W 119°42'0 0.0
2017-Nov-29 13:45N 34°24' W 119°42'0 0.0
2017-Nov-29 10:51N 34°24' W 119°42'0 0.0
2017-Nov-29 09:27N 34°24' W 119°42'0 0.0
2017-Nov-29 07:06N 34°24' W 119°42'0 0.0
2017-Nov-29 06:45N 34°24' W 119°42'0 0.0
2017-Nov-29 06:30N 34°24' W 119°42'0 0.0
2017-Nov-29 04:57N 34°24' W 119°42'0 0.0
2017-Nov-29 01:51N 34°24' W 119°42'0 0.0
2017-Nov-28 21:33N 34°24' W 119°42'0 0.0
2017-Nov-28 21:12N 34°24' W 119°42'0 0.0
2017-Nov-28 21:00N 34°24' W 119°42'0 0.0
2017-Nov-28 19:18N 34°24' W 119°42'0 0.0
2017-Nov-28 18:51N 34°24' W 119°42'0 0.0
2017-Nov-28 17:39N 34°24' W 119°42'0 0.0
2017-Nov-28 17:18N 34°24' W 119°42'0 0.0
2017-Nov-28 13:42N 34°24' W 119°42'0 0.0
2017-Nov-28 13:27N 34°24' W 119°42'0 0.0
2017-Nov-28 06:30N 34°24' W 119°42'0 0.0
2017-Nov-28 03:30N 34°24' W 119°42'0 0.0
2017-Nov-28 01:42N 34°24' W 119°42'0 0.0
2017-Nov-28 01:27N 34°24' W 119°42'0 0.0
2017-Nov-28 00:21N 34°24' W 119°42'0 0.0
2017-Nov-27 23:54N 34°24' W 119°42'0 0.0
2017-Nov-27 22:06N 34°24' W 119°42'0 0.0
2017-Nov-27 21:06N 34°24' W 119°42'0 0.0
2017-Nov-27 20:12N 34°24' W 119°42'0 0.0
2017-Nov-27 19:21N 34°24' W 119°42'0 0.0
2017-Nov-27 18:15N 34°24' W 119°42'0 0.0
2017-Nov-27 17:51N 34°24' W 119°42'0 0.0
2017-Nov-27 17:15N 34°24' W 119°42'0 0.0
2017-Nov-27 17:00N 34°24' W 119°42'0 0.0
2017-Nov-27 16:21N 34°24' W 119°42'0 0.0
2017-Nov-27 14:15N 34°24' W 119°42'0 0.0
2017-Nov-27 12:45N 34°24' W 119°42'0 0.0
2017-Nov-27 11:21N 34°24' W 119°42'0 0.0
2017-Nov-27 08:48N 34°24' W 119°42'0 0.0
2017-Nov-27 07:12N 34°24' W 119°42'0 0.0
2017-Nov-27 06:57N 34°24' W 119°42'0 0.0
2017-Nov-27 06:21N 34°24' W 119°42'0 0.0
2017-Nov-27 05:51N 34°24' W 119°42'0 0.0
2017-Nov-27 05:30N 34°24' W 119°42'0 0.0
2017-Nov-27 04:33N 34°24' W 119°42'0 0.0
2017-Nov-27 04:15N 34°24' W 119°42'0 0.0
2017-Nov-27 03:51N 34°24' W 119°42'0 0.0
2017-Nov-27 03:30N 34°24' W 119°42'0 0.0
2017-Nov-27 02:54N 34°24' W 119°42'0 0.0
2017-Nov-27 02:00N 34°24' W 119°42'0 0.0
2017-Nov-27 01:15N 34°24' W 119°42'0 0.0
2017-Nov-27 00:48N 34°24' W 119°42'0 0.0
2017-Nov-27 00:27N 34°24' W 119°42'0 0.0
2017-Nov-26 23:45N 34°24' W 119°42'0 0.0
2017-Nov-26 23:27N 34°24' W 119°42'0 0.1
2017-Nov-26 22:26N 34°24' W 119°41'2 5.3
2017-Nov-26 21:58N 34°22' W 119°42'1020.9
2017-Nov-26 21:30N 34°12' W 119°45'510.7
2017-Nov-26 21:00N 34°07' W 119°46'0 0.7
2017-Nov-26 20:28N 34°07' W 119°46'1 1.5
2017-Nov-26 20:00N 34°07' W 119°46'4 7.2
2017-Nov-26 19:30N 34°11' W 119°45'1018.4
2017-Nov-26 18:58N 34°20' W 119°41'1 1.8
2017-Nov-26 18:30N 34°20' W 119°42'4 1.0
2017-Nov-26 13:59N 34°24' W 119°42'0 0.0
2017-Nov-26 12:59N 34°24' W 119°42'0 0.0
2017-Nov-26 11:44N 34°24' W 119°42'0 0.0
2017-Nov-26 11:29N 34°24' W 119°42'0 0.0
2017-Nov-26 10:50N 34°24' W 119°42'0 0.0
2017-Nov-26 09:59N 34°24' W 119°42'0 0.0
2017-Nov-26 09:20N 34°24' W 119°42'0 0.0
2017-Nov-26 08:47N 34°24' W 119°42'0 0.0
2017-Nov-26 08:26N 34°24' W 119°42'0 0.0
2017-Nov-25 22:37N 34°24' W 119°42'0 2.4
2017-Nov-25 22:30N 34°25' W 119°41'713.1
2017-Nov-25 21:59N 34°18' W 119°45'918.0
2017-Nov-25 21:30N 34°10' W 119°47'4 7.8
2017-Nov-25 20:57N 34°06' W 119°48'1 1.6
2017-Nov-25 20:28N 34°06' W 119°48'2 3.2
2017-Nov-25 20:00N 34°08' W 119°48'0 0.7
2017-Nov-25 19:30N 34°08' W 119°49'3 6.7
2017-Nov-25 19:00N 34°11' W 119°48'1118.2
2017-Nov-25 18:25N 34°21' W 119°43'4 5.9
2017-Nov-25 17:47N 34°24' W 119°42'0 0.0
2017-Nov-25 17:23N 34°24' W 119°42'0 0.0
2017-Nov-25 16:23N 34°24' W 119°42'0 0.0
2017-Nov-25 15:59N 34°24' W 119°42'0 0.0
2017-Nov-25 15:26N 34°24' W 119°42'0 0.0
2017-Nov-25 14:44N 34°24' W 119°42'0 0.0
2017-Nov-25 14:26N 34°24' W 119°42'0 0.0
2017-Nov-25 13:41N 34°24' W 119°42'0 0.0
2017-Nov-25 13:23N 34°24' W 119°42'0 0.0
2017-Nov-25 12:53N 34°24' W 119°42'0 0.0
2017-Nov-25 11:53N 34°24' W 119°42'0 0.0
2017-Nov-25 11:02N 34°24' W 119°42'0 0.0
2017-Nov-25 10:59N 34°24' W 119°42'0 0.0
2017-Nov-25 09:50N 34°24' W 119°42'0 0.0
2017-Nov-25 09:14N 34°24' W 119°42'0 0.0
2017-Nov-25 08:59N 34°24' W 119°42'0 0.0
2017-Nov-25 08:11N 34°24' W 119°42'0 0.0
2017-Nov-25 07:47N 34°24' W 119°42'0 0.0
2017-Nov-25 07:23N 34°24' W 119°42'0 0.0
2017-Nov-25 06:05N 34°24' W 119°42'0 0.0
2017-Nov-25 05:35N 34°24' W 119°42'0 0.0
2017-Nov-25 05:17N 34°24' W 119°42'0 0.0
2017-Nov-25 04:29N 34°24' W 119°42'0 0.0
2017-Nov-25 03:50N 34°24' W 119°42'0 0.0
2017-Nov-25 03:14N 34°24' W 119°42'0 0.0
2017-Nov-25 02:50N 34°24' W 119°42'0 0.0
2017-Nov-25 02:14N 34°24' W 119°42'0 0.0
2017-Nov-25 01:41N 34°24' W 119°42'0 0.0
2017-Nov-25 00:38N 34°24' W 119°42'0 0.0
2017-Nov-25 00:20N 34°24' W 119°42'0 0.0
2017-Nov-24 23:59N 34°24' W 119°42'0 0.0
2017-Nov-24 23:26N 34°24' W 119°42'0 0.0
2017-Nov-24 22:47N 34°24' W 119°42'3 7.2
2017-Nov-24 22:25N 34°22' W 119°42'717.3
2017-Nov-24 22:00N 34°15' W 119°44'816.4
2017-Nov-24 21:30N 34°07' W 119°46'1 1.4
2017-Nov-24 20:59N 34°06' W 119°46'0 0.8
2017-Nov-24 20:26N 34°06' W 119°47'1 2.5
2017-Nov-24 19:59N 34°07' W 119°48'1 2.8
2017-Nov-24 19:30N 34°08' W 119°49'611.8
2017-Nov-24 18:59N 34°14' W 119°48'1016.7
2017-Nov-24 18:24N 34°22' W 119°42'3 4.6
2017-Nov-24 17:49N 34°24' W 119°42'0 0.0
2017-Nov-24 17:19N 34°24' W 119°42'0 0.0
2017-Nov-24 12:28N 34°24' W 119°42'0 0.0
2017-Nov-24 11:34N 34°24' W 119°42'0 0.0
2017-Nov-24 10:58N 34°24' W 119°42'0 0.0
2017-Nov-24 10:28N 34°24' W 119°42'  

Dump ship's entire track history